createdAt,value
2023-07-18T00:02:09.138Z,70.00
2023-07-18T00:04:37.428Z,69.88
2023-07-18T00:07:05.493Z,70.07
2023-07-18T00:09:32.878Z,70.09
2023-07-18T00:12:00.662Z,70.29
2023-07-18T00:14:30.844Z,70.24
2023-07-18T00:16:59.389Z,70.49
2023-07-18T00:19:26.061Z,70.36
2023-07-18T00:21:54.467Z,70.70
2023-07-18T00:24:21.238Z,70.65
2023-07-18T00:26:47.942Z,70.86
2023-07-18T00:29:14.705Z,70.78
2023-07-18T00:31:42.340Z,70.83
2023-07-18T00:34:09.124Z,70.80
2023-07-18T00:36:35.814Z,70.88
2023-07-18T00:39:04.806Z,70.99
2023-07-18T00:41:31.710Z,71.18
2023-07-18T00:43:58.484Z,71.28
2023-07-18T00:46:25.728Z,71.39
2023-07-18T00:48:52.885Z,71.15
2023-07-18T00:51:20.291Z,71.54
2023-07-18T00:53:47.332Z,71.45
2023-07-18T00:56:15.437Z,71.46
2023-07-18T00:58:42.324Z,71.53
2023-07-18T01:01:09.274Z,71.68
2023-07-18T01:03:38.895Z,71.73
2023-07-18T01:06:06.931Z,71.59
2023-07-18T01:08:33.977Z,71.93
2023-07-18T01:11:00.855Z,72.01
2023-07-18T01:13:28.889Z,72.08
2023-07-18T01:15:55.689Z,72.08
2023-07-18T01:18:22.395Z,71.86
2023-07-18T01:20:50.159Z,71.88
2023-07-18T01:23:18.362Z,72.16
2023-07-18T01:25:45.316Z,72.24
2023-07-18T01:28:12.226Z,72.33
2023-07-18T01:30:39.273Z,71.95
2023-07-18T01:33:06.183Z,72.20
2023-07-18T01:35:33.463Z,72.37
2023-07-18T01:38:01.855Z,72.19
2023-07-18T01:40:29.992Z,72.30
2023-07-18T01:42:58.667Z,72.32
2023-07-18T01:45:29.057Z,72.50
2023-07-18T01:47:57.683Z,72.41
2023-07-18T01:50:25.007Z,72.40
2023-07-18T01:52:51.861Z,72.70
2023-07-18T01:55:18.640Z,72.84
2023-07-18T01:57:48.647Z,72.51
2023-07-18T02:00:23.208Z,72.47
2023-07-18T02:02:52.613Z,72.74
2023-07-18T02:05:22.218Z,72.55
2023-07-18T02:07:49.332Z,72.70
2023-07-18T02:10:17.560Z,72.65
2023-07-18T02:12:46.829Z,72.67
2023-07-18T02:15:16.495Z,72.68
2023-07-18T02:17:44.356Z,72.70
2023-07-18T02:20:13.209Z,72.76
2023-07-18T02:22:41.798Z,72.81
2023-07-18T02:25:10.038Z,72.81
2023-07-18T02:27:40.154Z,72.73
2023-07-18T02:30:10.839Z,72.98
2023-07-18T02:32:37.959Z,73.05
2023-07-18T02:35:05.401Z,73.06
2023-07-18T02:37:32.215Z,73.11
2023-07-18T02:39:58.904Z,72.95
2023-07-18T02:42:25.770Z,73.28
2023-07-18T02:44:52.629Z,73.06
2023-07-18T02:47:20.896Z,73.16
2023-07-18T02:49:47.648Z,73.10
2023-07-18T02:52:14.322Z,73.40
2023-07-18T02:54:41.428Z,73.53
2023-07-18T02:57:08.252Z,73.25
2023-07-18T02:59:35.013Z,73.49
2023-07-18T03:02:02.319Z,73.46
2023-07-18T03:04:32.020Z,73.54
2023-07-18T03:07:01.473Z,73.45
2023-07-18T03:09:28.521Z,73.63
2023-07-18T03:11:55.454Z,73.73
2023-07-18T03:14:22.757Z,73.78
2023-07-18T03:16:50.027Z,73.77
2023-07-18T03:19:16.831Z,73.92
2023-07-18T03:21:45.876Z,73.58
2023-07-18T03:24:12.856Z,73.55
2023-07-18T03:26:43.688Z,73.72
2023-07-18T03:29:10.786Z,73.92
2023-07-18T03:31:37.574Z,73.99
2023-07-18T03:34:06.315Z,73.48
2023-07-18T03:36:33.433Z,73.76
2023-07-18T03:39:01.761Z,73.86
2023-07-18T03:41:28.653Z,73.92
2023-07-18T03:43:56.148Z,73.80
2023-07-18T03:46:23.071Z,74.15
2023-07-18T03:48:49.966Z,74.16
2023-07-18T03:51:17.635Z,74.06
2023-07-18T03:53:45.988Z,73.90
2023-07-18T03:56:14.789Z,73.97
2023-07-18T03:58:41.790Z,74.06
2023-07-18T04:01:09.461Z,74.33
2023-07-18T04:03:36.245Z,74.32
2023-07-18T04:06:03.400Z,74.36
2023-07-18T04:08:33.897Z,74.51
2023-07-18T04:11:01.431Z,74.54
2023-07-18T04:13:29.578Z,74.14
2023-07-18T04:15:57.076Z,74.44
2023-07-18T04:18:23.996Z,74.36
2023-07-18T04:20:59.842Z,74.61
2023-07-18T04:23:26.598Z,74.67
2023-07-18T04:25:58.451Z,74.62
2023-07-18T04:28:26.659Z,74.68
2023-07-18T04:30:55.201Z,74.67
2023-07-18T04:33:22.229Z,74.80
2023-07-18T04:35:49.115Z,74.51
2023-07-18T04:38:16.073Z,74.68
2023-07-18T04:40:43.117Z,74.56
2023-07-18T04:43:10.451Z,74.85
2023-07-18T04:45:42.459Z,74.58
2023-07-18T04:48:11.674Z,74.92
2023-07-18T04:50:38.652Z,74.99
2023-07-18T04:53:06.954Z,75.21
2023-07-18T04:55:35.712Z,75.27
2023-07-18T04:58:03.183Z,75.17
2023-07-18T05:00:30.298Z,75.20
2023-07-18T05:02:57.903Z,75.28
2023-07-18T05:05:26.925Z,75.03
2023-07-18T05:07:54.103Z,75.39
2023-07-18T05:10:21.867Z,75.04
2023-07-18T05:12:48.617Z,75.21
2023-07-18T05:15:15.528Z,75.12
2023-07-18T05:17:42.387Z,75.26
2023-07-18T05:20:13.039Z,74.93
2023-07-18T05:22:43.066Z,75.06
2023-07-18T05:25:11.681Z,74.93
2023-07-18T05:27:40.147Z,74.80
2023-07-18T05:30:11.689Z,75.10
2023-07-18T05:32:40.251Z,74.87
2023-07-18T05:35:08.173Z,74.80
2023-07-18T05:37:35.673Z,74.85
2023-07-18T05:40:04.804Z,74.82
2023-07-18T05:42:32.064Z,74.98
2023-07-18T05:44:59.186Z,74.75
2023-07-18T05:47:26.069Z,74.86
2023-07-18T05:49:52.804Z,75.03
2023-07-18T05:52:19.615Z,74.93
2023-07-18T05:54:46.480Z,74.91
2023-07-18T05:57:17.051Z,75.01
2023-07-18T05:59:43.829Z,74.74
2023-07-18T06:02:10.593Z,74.73
2023-07-18T06:04:38.077Z,74.68
2023-07-18T06:07:05.551Z,74.58
2023-07-18T06:09:32.634Z,74.62
2023-07-18T06:12:00.048Z,74.47
2023-07-18T06:14:29.334Z,74.37
2023-07-18T06:16:56.126Z,74.20
2023-07-18T06:19:23.061Z,74.27
2023-07-18T06:21:49.755Z,74.26
2023-07-18T06:24:19.314Z,74.16
2023-07-18T06:26:51.429Z,73.97
2023-07-18T06:29:18.636Z,74.25
2023-07-18T06:31:47.284Z,73.94
2023-07-18T06:34:14.250Z,73.76
2023-07-18T06:36:40.983Z,73.45
2023-07-18T06:39:08.015Z,73.53
2023-07-18T06:41:35.209Z,73.55
2023-07-18T06:44:02.203Z,73.25
2023-07-18T06:46:29.185Z,73.27
2023-07-18T06:48:57.396Z,73.20
2023-07-18T06:51:24.522Z,73.14
2023-07-18T06:53:53.355Z,72.90
2023-07-18T06:56:20.499Z,72.93
2023-07-18T06:58:47.493Z,72.54
2023-07-18T07:01:15.779Z,72.48
2023-07-18T07:03:42.706Z,72.40
2023-07-18T07:06:12.112Z,72.20
2023-07-18T07:08:38.864Z,72.05
2023-07-18T07:11:07.219Z,72.14
2023-07-18T07:13:35.858Z,72.00
2023-07-18T07:16:02.642Z,71.79
2023-07-18T07:18:29.507Z,71.96
2023-07-18T07:20:56.229Z,71.68
2023-07-18T07:23:25.000Z,71.42
2023-07-18T07:25:52.677Z,71.25
2023-07-18T07:28:20.621Z,71.02
2023-07-18T07:30:47.794Z,70.92
2023-07-18T07:33:14.551Z,70.87
2023-07-18T07:35:41.334Z,70.73
2023-07-18T07:38:11.504Z,70.53
2023-07-18T07:40:39.706Z,70.56
2023-07-18T07:43:06.436Z,70.36
2023-07-18T07:45:33.260Z,70.35
2023-07-18T07:48:00.131Z,69.97
2023-07-18T07:50:28.565Z,69.70
2023-07-18T07:52:55.303Z,69.80
2023-07-18T07:55:22.130Z,69.84
2023-07-18T07:57:50.393Z,69.57
2023-07-18T08:00:18.067Z,69.35
2023-07-18T08:02:50.938Z,69.29
2023-07-18T08:05:19.486Z,69.14
2023-07-18T08:07:46.658Z,68.86
2023-07-18T08:10:14.141Z,68.90
2023-07-18T08:12:41.240Z,68.93
2023-07-18T08:15:10.736Z,68.57
2023-07-18T08:17:37.802Z,68.52
2023-07-18T08:20:07.586Z,68.32
2023-07-18T08:22:35.102Z,68.07
2023-07-18T08:25:02.237Z,67.92
2023-07-18T08:27:28.942Z,67.85
2023-07-18T08:29:56.462Z,67.66
2023-07-18T08:32:29.765Z,67.57
2023-07-18T08:34:56.851Z,67.42
2023-07-18T08:37:23.645Z,67.40
2023-07-18T08:39:50.367Z,67.14
2023-07-18T08:42:20.666Z,66.80
2023-07-18T08:44:50.559Z,66.73
2023-07-18T08:47:18.371Z,66.52
2023-07-18T08:49:48.206Z,66.59
2023-07-18T08:52:16.223Z,66.21
2023-07-18T08:54:43.129Z,66.27
2023-07-18T08:57:10.341Z,66.18
2023-07-18T08:59:39.927Z,66.07
2023-07-18T09:02:06.972Z,65.92
2023-07-18T09:04:34.517Z,65.24
2023-07-18T09:07:03.998Z,65.33
2023-07-18T09:09:31.021Z,65.11
2023-07-18T09:12:03.658Z,64.75
2023-07-18T09:14:33.273Z,64.60
2023-07-18T09:17:01.656Z,64.16
2023-07-18T09:19:40.086Z,64.10
2023-07-18T09:22:12.627Z,63.93
2023-07-18T09:24:40.808Z,63.63
2023-07-18T09:27:09.341Z,63.45
2023-07-18T09:29:36.509Z,63.61
2023-07-18T09:32:03.634Z,63.34
2023-07-18T09:34:30.607Z,63.08
2023-07-18T09:37:00.696Z,62.61
2023-07-18T09:39:30.439Z,62.56
2023-07-18T09:41:57.788Z,62.60
2023-07-18T09:44:33.239Z,62.11
2023-07-18T09:47:01.901Z,61.97
2023-07-18T09:52:02.711Z,61.61
2023-07-18T09:54:31.486Z,61.67
2023-07-18T09:57:03.210Z,61.53
2023-07-18T09:59:30.896Z,61.36
2023-07-18T10:01:58.058Z,61.05
2023-07-18T10:04:26.627Z,60.95
2023-07-18T10:06:56.805Z,60.77
2023-07-18T10:09:24.590Z,60.08
2023-07-18T10:12:09.668Z,59.54
2023-07-18T10:15:01.564Z,59.34
2023-07-18T10:17:40.741Z,58.57
2023-07-18T10:20:13.172Z,58.38
2023-07-18T10:22:50.349Z,58.43
2023-07-18T10:25:21.047Z,58.43
2023-07-18T10:27:51.008Z,58.37
2023-07-18T10:30:19.438Z,58.09
2023-07-18T10:32:54.445Z,57.90
2023-07-18T10:35:26.334Z,58.02
2023-07-18T10:37:54.654Z,58.20
2023-07-18T10:40:37.651Z,57.79
2023-07-18T10:43:09.701Z,57.60
2023-07-18T10:45:38.832Z,57.31
2023-07-18T10:48:13.155Z,57.15
2023-07-18T10:50:43.686Z,56.72
2023-07-18T10:53:16.032Z,56.82
2023-07-18T10:55:47.054Z,56.92
2023-07-18T10:58:29.385Z,56.67
2023-07-18T11:00:56.376Z,56.74
2023-07-18T11:03:24.743Z,56.48
2023-07-18T11:05:52.654Z,56.25
2023-07-18T11:08:27.224Z,56.36
2023-07-18T11:10:56.247Z,56.36
2023-07-18T11:13:29.674Z,56.13
2023-07-18T11:15:58.098Z,55.85
2023-07-18T11:18:25.020Z,56.12
2023-07-18T11:20:54.200Z,55.53
2023-07-18T11:23:21.512Z,55.43
2023-07-18T11:25:48.665Z,54.87
2023-07-18T11:28:16.776Z,54.29
2023-07-18T11:30:46.260Z,53.89
2023-07-18T11:33:14.515Z,53.67
2023-07-18T11:35:45.732Z,53.00
2023-07-18T11:38:15.469Z,52.97
2023-07-18T11:40:42.254Z,53.29
2023-07-18T11:43:17.623Z,53.20
2023-07-18T11:45:47.608Z,53.54
2023-07-18T11:48:20.438Z,53.13
2023-07-18T11:50:47.435Z,53.11
2023-07-18T11:53:25.158Z,52.93
2023-07-18T11:55:51.878Z,53.29
2023-07-18T11:58:18.691Z,53.23
2023-07-18T12:00:48.563Z,52.97
2023-07-18T12:03:15.490Z,52.89
2023-07-18T12:05:45.356Z,52.13
2023-07-18T12:08:13.321Z,52.43
2023-07-18T12:10:40.549Z,51.49
2023-07-18T12:13:07.420Z,51.49
2023-07-18T12:15:37.092Z,51.88
2023-07-18T12:18:06.538Z,51.72
2023-07-18T12:20:34.303Z,51.82
2023-07-18T12:23:01.039Z,50.90
2023-07-18T12:25:32.804Z,50.90
2023-07-18T12:28:05.078Z,49.88
2023-07-18T12:30:32.279Z,50.32
2023-07-18T12:33:00.088Z,50.24
2023-07-18T12:35:28.659Z,48.85
2023-07-18T12:38:01.580Z,49.07
2023-07-18T12:40:29.682Z,49.54
2023-07-18T12:42:57.761Z,49.63
2023-07-18T12:45:25.838Z,49.62
2023-07-18T12:47:52.680Z,49.52
2023-07-18T12:50:19.625Z,49.79
2023-07-18T12:52:47.995Z,49.55
2023-07-18T12:55:15.061Z,49.38
2023-07-18T12:57:42.215Z,49.17
2023-07-18T13:00:11.341Z,49.35
2023-07-18T13:02:38.164Z,48.72
2023-07-18T13:05:05.702Z,49.04
2023-07-18T13:07:34.137Z,49.05
2023-07-18T13:10:02.346Z,49.40
2023-07-18T13:12:31.213Z,49.29
2023-07-18T13:14:58.708Z,48.97
2023-07-18T13:17:25.643Z,49.11
2023-07-18T13:19:54.561Z,49.26
2023-07-18T13:22:21.549Z,49.24
2023-07-18T13:24:48.693Z,49.36
2023-07-18T13:27:16.985Z,49.20
2023-07-18T13:29:47.229Z,49.09
2023-07-18T13:32:13.961Z,48.53
2023-07-18T13:34:40.885Z,47.74
2023-07-18T13:37:07.616Z,47.96
2023-07-18T13:39:34.462Z,48.04
2023-07-18T13:42:01.535Z,48.21
2023-07-18T13:44:29.782Z,47.16
2023-07-18T13:46:56.881Z,45.68
2023-07-18T13:49:23.958Z,45.21
2023-07-18T13:51:50.911Z,46.10
2023-07-18T13:54:17.700Z,46.62
2023-07-18T13:56:45.439Z,46.68
2023-07-18T13:59:13.351Z,46.45
2023-07-18T14:01:42.789Z,46.32
2023-07-18T14:04:09.615Z,46.57
2023-07-18T14:06:36.346Z,46.30
2023-07-18T14:09:03.603Z,45.21
2023-07-18T14:11:30.946Z,45.21
2023-07-18T14:13:59.642Z,45.21
2023-07-18T14:16:26.481Z,45.53
2023-07-18T14:18:58.366Z,45.65
2023-07-18T14:21:25.820Z,44.87
2023-07-18T14:23:52.948Z,44.76
2023-07-18T14:26:20.007Z,44.86
2023-07-18T14:28:46.865Z,44.92
2023-07-18T14:31:14.628Z,45.15
2023-07-18T14:33:55.329Z,45.28
2023-07-18T14:36:29.808Z,45.27
2023-07-18T14:38:56.695Z,45.42
2023-07-18T14:41:23.497Z,45.44
2023-07-18T14:43:50.169Z,45.16
2023-07-18T14:46:16.956Z,45.28
2023-07-18T14:48:43.703Z,45.50
2023-07-18T14:51:10.502Z,45.56
2023-07-18T14:53:39.346Z,45.47
2023-07-18T14:56:07.293Z,45.83
2023-07-18T14:58:34.190Z,45.17
2023-07-18T15:01:01.006Z,44.53
2023-07-18T15:03:27.972Z,44.16
2023-07-18T15:05:54.802Z,42.92
2023-07-18T15:08:21.669Z,43.23
2023-07-18T15:10:49.843Z,43.72
2023-07-18T15:13:16.977Z,43.69
2023-07-18T15:15:44.139Z,44.27
2023-07-18T15:18:11.484Z,44.48
2023-07-18T15:20:38.329Z,44.21
2023-07-18T15:23:05.203Z,44.48
2023-07-18T15:25:32.327Z,44.36
2023-07-18T15:28:00.878Z,44.20
2023-07-18T15:30:28.634Z,44.69
2023-07-18T15:32:55.405Z,44.89
2023-07-18T15:35:23.001Z,44.88
2023-07-18T15:37:49.799Z,45.22
2023-07-18T15:40:16.516Z,45.34
2023-07-18T15:42:43.180Z,45.47
2023-07-18T15:45:11.882Z,44.91
2023-07-18T15:47:39.474Z,43.75
2023-07-18T15:50:07.617Z,43.58
2023-07-18T15:52:34.339Z,43.78
2023-07-18T15:55:01.628Z,44.20
2023-07-18T15:57:29.682Z,44.22
2023-07-18T15:59:56.370Z,44.23
2023-07-18T16:02:24.742Z,43.98
2023-07-18T16:04:51.545Z,43.38
2023-07-18T16:07:18.424Z,42.98
2023-07-18T16:09:49.593Z,43.51
2023-07-18T16:12:16.377Z,43.00
2023-07-18T16:14:43.419Z,42.32
2023-07-18T16:17:11.207Z,41.96
2023-07-18T16:19:39.765Z,40.83
2023-07-18T16:22:06.779Z,41.41
2023-07-18T16:24:33.566Z,41.91
2023-07-18T16:27:02.731Z,42.43
2023-07-18T16:29:29.458Z,42.83
2023-07-18T16:31:59.266Z,42.71
2023-07-18T16:34:26.004Z,42.83
2023-07-18T16:36:56.393Z,42.88
2023-07-18T16:39:23.075Z,43.14
2023-07-18T16:41:49.842Z,43.35
2023-07-18T16:44:18.646Z,43.59
2023-07-18T16:46:47.324Z,43.69
2023-07-18T16:49:14.142Z,44.04
2023-07-18T16:51:41.060Z,43.98
2023-07-18T16:54:09.238Z,43.28
2023-07-18T16:56:36.859Z,43.30
2023-07-18T16:59:03.663Z,42.90
2023-07-18T17:01:32.516Z,42.65
2023-07-18T17:04:00.807Z,43.15
2023-07-18T17:06:27.681Z,43.33
2023-07-18T17:08:54.729Z,42.60
2023-07-18T17:11:23.012Z,42.30
2023-07-18T17:13:52.448Z,42.32
2023-07-18T17:16:20.226Z,41.76
2023-07-18T17:18:47.663Z,41.70
2023-07-18T17:21:14.450Z,42.23
2023-07-18T17:23:41.185Z,42.78
2023-07-18T17:26:10.205Z,43.22
2023-07-18T17:28:38.283Z,43.43
2023-07-18T17:31:05.203Z,43.71
2023-07-18T17:33:31.980Z,43.72
2023-07-18T17:35:58.686Z,43.49
2023-07-18T17:38:25.665Z,43.70
2023-07-18T17:40:52.635Z,43.76
2023-07-18T17:43:19.388Z,43.81
2023-07-18T17:45:47.695Z,43.92
2023-07-18T17:48:14.652Z,43.92
2023-07-18T17:50:41.488Z,44.42
2023-07-18T17:53:08.211Z,44.58
2023-07-18T17:55:35.074Z,44.56
2023-07-18T17:58:01.895Z,44.53
2023-07-18T18:00:30.226Z,44.59
2023-07-18T18:02:58.689Z,45.00
2023-07-18T18:05:36.342Z,44.80
2023-07-18T18:08:06.323Z,44.72
2023-07-18T18:10:33.171Z,44.92
2023-07-18T18:12:59.930Z,44.85
2023-07-18T18:15:28.143Z,45.34
2023-07-18T18:17:55.067Z,45.38
2023-07-18T18:20:23.296Z,45.24
2023-07-18T18:22:50.198Z,45.46
2023-07-18T18:25:17.388Z,45.72
2023-07-18T18:27:45.039Z,45.74
2023-07-18T18:30:13.042Z,45.86
2023-07-18T18:32:39.960Z,45.80
2023-07-18T18:35:09.822Z,45.90
2023-07-18T18:37:39.432Z,46.23
2023-07-18T18:40:07.171Z,46.51
2023-07-18T18:42:34.804Z,46.67
2023-07-18T18:45:01.847Z,46.69
2023-07-18T18:47:28.607Z,46.60
2023-07-18T18:49:57.816Z,46.48
2023-07-18T18:52:26.084Z,45.81
2023-07-18T18:55:08.693Z,45.37
2023-07-18T18:57:40.046Z,45.54
2023-07-18T19:00:09.078Z,45.38
2023-07-18T19:02:36.428Z,45.83
2023-07-18T19:05:05.623Z,46.09
2023-07-18T19:07:34.539Z,46.04
2023-07-18T19:10:03.930Z,45.63
2023-07-18T19:12:30.753Z,46.02
2023-07-18T19:14:58.394Z,46.25
2023-07-18T19:17:25.884Z,46.87
2023-07-18T19:19:53.007Z,47.33
2023-07-18T19:22:20.595Z,48.02
2023-07-18T19:24:51.038Z,48.11
2023-07-18T19:27:19.697Z,48.62
2023-07-18T19:29:46.653Z,48.97
2023-07-18T19:32:13.426Z,49.31
2023-07-18T19:34:42.676Z,49.83
2023-07-18T19:37:09.405Z,50.15
2023-07-18T19:39:37.886Z,50.19
2023-07-18T19:42:05.477Z,50.71
2023-07-18T19:44:33.876Z,51.00
2023-07-18T19:47:02.032Z,51.15
2023-07-18T19:49:32.033Z,51.47
2023-07-18T19:51:59.150Z,51.50
2023-07-18T19:54:26.432Z,51.60
2023-07-18T19:56:54.341Z,51.48
2023-07-18T19:59:21.920Z,51.32
2023-07-18T20:01:52.236Z,51.49
2023-07-18T20:04:19.379Z,51.40
2023-07-18T20:06:46.141Z,51.64
2023-07-18T20:09:12.893Z,51.49
2023-07-18T20:11:39.794Z,51.46
2023-07-18T20:14:06.500Z,51.49
2023-07-18T20:16:33.300Z,51.55
2023-07-18T20:19:03.106Z,51.59
2023-07-18T20:21:30.414Z,51.47
2023-07-18T20:23:58.243Z,51.47
2023-07-18T20:26:25.587Z,51.59
2023-07-18T20:28:53.725Z,51.64
2023-07-18T20:31:20.883Z,51.77
2023-07-18T20:33:48.479Z,51.68
2023-07-18T20:36:16.760Z,52.02
2023-07-18T20:38:47.257Z,51.96
2023-07-18T20:41:14.258Z,52.02
2023-07-18T20:43:41.794Z,51.93
2023-07-18T20:46:12.385Z,52.24
2023-07-18T20:48:39.322Z,52.40
2023-07-18T20:51:07.279Z,52.46
2023-07-18T20:53:35.717Z,52.49
2023-07-18T20:56:02.763Z,52.59
2023-07-18T20:58:29.762Z,52.79
2023-07-18T21:00:56.485Z,52.89
2023-07-18T21:03:25.130Z,53.11
2023-07-18T21:05:52.388Z,53.00
2023-07-18T21:08:19.566Z,53.11
2023-07-18T21:10:49.246Z,53.12
2023-07-18T21:13:16.250Z,53.27
2023-07-18T21:15:43.234Z,53.16
2023-07-18T21:18:10.377Z,53.24
2023-07-18T21:20:38.463Z,53.25
2023-07-18T21:23:05.391Z,53.33
2023-07-18T21:25:32.677Z,53.50
2023-07-18T21:28:00.734Z,53.52
2023-07-18T21:30:27.888Z,53.46
2023-07-18T21:32:54.975Z,53.66
2023-07-18T21:35:25.061Z,53.95
2023-07-18T21:37:52.019Z,53.86
2023-07-18T21:40:19.187Z,53.79
2023-07-18T21:42:49.455Z,54.07
2023-07-18T21:45:17.930Z,54.37
2023-07-18T21:47:45.788Z,54.65
2023-07-18T21:50:12.764Z,54.85
2023-07-18T21:52:39.641Z,54.99
2023-07-18T21:55:07.634Z,55.19
2023-07-18T21:57:34.305Z,55.32
2023-07-18T22:00:01.163Z,55.53
2023-07-18T22:02:37.008Z,55.60
2023-07-18T22:05:04.551Z,55.66
2023-07-18T22:07:31.788Z,55.88
2023-07-18T22:09:59.382Z,56.17
2023-07-18T22:12:26.104Z,56.20
2023-07-18T22:14:57.128Z,56.36
2023-07-18T22:17:23.872Z,56.53
2023-07-18T22:19:51.895Z,56.56
2023-07-18T22:22:18.731Z,56.68
2023-07-18T22:24:45.489Z,56.80
2023-07-18T22:27:12.208Z,57.05
2023-07-18T22:29:39.156Z,57.36
2023-07-18T22:32:07.355Z,57.47
2023-07-18T22:34:34.900Z,57.54
2023-07-18T22:37:03.225Z,57.66
2023-07-18T22:39:36.487Z,57.96
2023-07-18T22:42:15.339Z,57.94
2023-07-18T22:44:42.647Z,57.86
2023-07-18T22:47:10.162Z,58.04
2023-07-18T22:49:37.212Z,58.05
2023-07-18T22:52:06.719Z,58.33
2023-07-18T22:54:34.695Z,58.11
2023-07-18T22:57:01.836Z,58.37
2023-07-18T22:59:28.662Z,58.53
2023-07-18T23:01:55.402Z,58.80
2023-07-18T23:04:23.704Z,58.87
2023-07-18T23:06:50.372Z,58.90
2023-07-18T23:09:19.695Z,59.12
2023-07-18T23:11:46.808Z,59.18
2023-07-18T23:14:13.706Z,59.33
2023-07-18T23:16:41.773Z,59.42
2023-07-18T23:19:08.526Z,59.63
2023-07-18T23:21:35.628Z,59.78
2023-07-18T23:24:02.710Z,60.04
2023-07-18T23:26:30.913Z,60.29
2023-07-18T23:28:58.042Z,60.31
2023-07-18T23:31:24.998Z,60.54
2023-07-18T23:33:51.952Z,60.86
2023-07-18T23:36:18.669Z,61.11
2023-07-18T23:38:46.525Z,61.23
2023-07-18T23:41:13.404Z,61.38
2023-07-18T23:43:41.444Z,61.57
2023-07-18T23:46:08.374Z,61.61
2023-07-18T23:48:35.998Z,61.73
2023-07-18T23:51:03.221Z,61.80
2023-07-18T23:53:29.901Z,62.04
2023-07-18T23:55:56.792Z,62.14
2023-07-18T23:58:23.732Z,62.43
